createdAt,value
2019-05-23T00:01:12.010Z,10.70
2019-05-23T00:03:55.685Z,10.70
2019-05-23T00:06:27.193Z,10.60
2019-05-23T00:08:57.358Z,10.50
2019-05-23T00:11:46.855Z,10.50
2019-05-23T00:14:23.224Z,10.30
2019-05-23T00:16:54.687Z,10.30
2019-05-23T00:19:25.643Z,10.20
2019-05-23T00:21:56.124Z,10.30
2019-05-23T00:24:27.296Z,10.20
2019-05-23T00:26:59.799Z,10.20
2019-05-23T00:29:29.769Z,10.20
2019-05-23T00:32:15.747Z,10.10
2019-05-23T00:34:45.323Z,10.10
2019-05-23T00:37:16.723Z,10.10
2019-05-23T00:39:47.302Z,10.10
2019-05-23T00:42:16.960Z,9.90
2019-05-23T00:44:47.129Z,9.80
2019-05-23T00:47:16.999Z,9.90
2019-05-23T00:49:47.165Z,9.90
2019-05-23T00:52:17.114Z,10.00
2019-05-23T00:54:47.414Z,10.00
2019-05-23T00:57:17.481Z,9.90
2019-05-23T00:59:49.028Z,9.80
2019-05-23T01:02:19.620Z,9.70
2019-05-23T01:04:50.811Z,9.60
2019-05-23T01:07:20.765Z,9.50
2019-05-23T01:09:50.741Z,9.40
2019-05-23T01:12:21.098Z,9.40
2019-05-23T01:14:51.754Z,9.40
2019-05-23T01:17:22.035Z,9.40
2019-05-23T01:19:51.823Z,9.30
2019-05-23T01:22:21.388Z,9.40
2019-05-23T01:24:54.819Z,9.40
2019-05-23T01:27:24.576Z,9.40
2019-05-23T01:29:55.028Z,9.40
2019-05-23T01:32:28.210Z,9.30
2019-05-23T01:34:57.889Z,9.30
2019-05-23T01:37:27.467Z,9.30
2019-05-23T01:39:57.464Z,9.30
2019-05-23T01:42:29.288Z,9.30
2019-05-23T01:45:00.185Z,9.20
2019-05-23T01:47:32.477Z,9.20
2019-05-23T01:50:02.644Z,9.20
2019-05-23T01:52:32.892Z,9.20
2019-05-23T01:55:02.915Z,9.20
2019-05-23T01:57:33.096Z,9.10
2019-05-23T02:00:10.230Z,9.10
2019-05-23T02:02:35.197Z,9.20
2019-05-23T02:05:05.200Z,9.10
2019-05-23T02:07:35.303Z,9.00
2019-05-23T02:10:06.222Z,8.90
2019-05-23T02:12:37.564Z,9.00
2019-05-23T02:15:07.184Z,9.00
2019-05-23T02:17:37.723Z,9.00
2019-05-23T02:20:07.804Z,9.00
2019-05-23T02:22:37.330Z,9.00
2019-05-23T02:25:08.083Z,8.90
2019-05-23T02:27:37.654Z,8.80
2019-05-23T02:30:30.185Z,8.70
2019-05-23T02:32:41.212Z,8.80
2019-05-23T02:35:11.496Z,8.80
2019-05-23T02:38:06.746Z,8.70
2019-05-23T02:40:47.915Z,8.70
2019-05-23T02:43:19.305Z,8.60
2019-05-23T02:45:53.919Z,8.60
2019-05-23T02:48:25.928Z,8.60
2019-05-23T02:51:00.104Z,8.70
2019-05-23T02:53:33.582Z,8.70
2019-05-23T02:56:07.896Z,8.70
2019-05-23T02:58:52.105Z,8.70
2019-05-23T03:01:46.219Z,8.70
2019-05-23T03:04:18.038Z,8.60
2019-05-23T03:06:48.347Z,8.70
2019-05-23T03:09:19.676Z,8.60
2019-05-23T03:11:52.079Z,8.50
2019-05-23T03:14:22.705Z,8.50
2019-05-23T03:16:54.387Z,8.60
2019-05-23T03:19:34.271Z,8.60
2019-05-23T03:22:29.048Z,8.50
2019-05-23T03:25:01.473Z,8.40
2019-05-23T03:27:34.606Z,8.50
2019-05-23T03:30:06.128Z,8.50
2019-05-23T03:32:54.465Z,8.40
2019-05-23T03:35:28.406Z,8.40
2019-05-23T03:37:59.136Z,8.50
2019-05-23T03:40:29.896Z,8.40
2019-05-23T03:42:59.817Z,8.40
2019-05-23T03:45:33.507Z,8.50
2019-05-23T03:48:05.557Z,8.60
2019-05-23T03:50:35.640Z,8.40
2019-05-23T03:53:06.490Z,8.60
2019-05-23T03:55:38.548Z,8.60
2019-05-23T03:58:10.204Z,8.80
2019-05-23T04:00:44.706Z,9.00
2019-05-23T04:03:14.360Z,9.20
2019-05-23T04:05:45.699Z,9.10
2019-05-23T04:08:15.300Z,9.10
2019-05-23T04:10:45.044Z,9.30
2019-05-23T04:13:15.041Z,9.40
2019-05-23T04:15:44.695Z,9.60
2019-05-23T04:18:14.761Z,9.70
2019-05-23T04:20:44.528Z,9.70
2019-05-23T04:23:14.207Z,9.90
2019-05-23T04:25:43.659Z,10.10
2019-05-23T04:28:12.959Z,10.20
2019-05-23T04:30:42.435Z,10.40
2019-05-23T04:33:11.861Z,10.50
2019-05-23T04:35:41.126Z,10.60
2019-05-23T04:38:10.801Z,10.70
2019-05-23T04:40:40.360Z,10.80
2019-05-23T04:43:09.584Z,10.90
2019-05-23T04:45:40.115Z,11.00
2019-05-23T04:48:09.776Z,11.10
2019-05-23T04:50:39.697Z,11.30
2019-05-23T04:53:09.746Z,11.40
2019-05-23T04:55:39.481Z,11.30
2019-05-23T04:58:09.876Z,11.50
2019-05-23T05:00:39.566Z,11.70
2019-05-23T05:03:10.085Z,11.70
2019-05-23T05:05:40.075Z,11.80
2019-05-23T05:08:09.602Z,11.90
2019-05-23T05:10:39.644Z,12.30
2019-05-23T05:13:08.244Z,13.00
2019-05-23T05:15:37.412Z,13.90
2019-05-23T05:18:06.548Z,14.70
2019-05-23T05:20:34.803Z,15.40
2019-05-23T05:23:03.333Z,15.60
2019-05-23T05:25:31.844Z,16.30
2019-05-23T05:28:00.469Z,16.00
2019-05-23T05:30:28.755Z,16.40
2019-05-23T05:32:57.265Z,16.40
2019-05-23T05:35:27.447Z,16.90
2019-05-23T05:37:56.510Z,17.80
2019-05-23T05:40:24.938Z,17.70
2019-05-23T05:42:53.468Z,17.90
2019-05-23T05:45:21.925Z,18.30
2019-05-23T05:47:50.380Z,19.00
2019-05-23T05:50:19.280Z,19.10
2019-05-23T05:52:47.517Z,19.30
2019-05-23T05:55:17.112Z,20.20
2019-05-23T05:57:46.601Z,20.60
2019-05-23T06:00:33.459Z,19.40
2019-05-23T06:03:05.201Z,20.40
2019-05-23T06:05:38.679Z,21.70
2019-05-23T06:08:08.095Z,22.60
2019-05-23T06:10:36.516Z,23.00
2019-05-23T06:13:04.815Z,22.60
2019-05-23T06:15:34.458Z,23.80
2019-05-23T06:18:05.523Z,24.30
2019-05-23T06:20:35.731Z,24.10
2019-05-23T06:23:05.323Z,24.90
2019-05-23T06:25:34.013Z,25.30
2019-05-23T06:28:03.287Z,26.00
2019-05-23T06:30:32.960Z,25.40
2019-05-23T06:33:01.432Z,24.90
2019-05-23T06:35:29.684Z,26.20
2019-05-23T06:37:58.097Z,26.30
2019-05-23T06:40:27.283Z,27.20
2019-05-23T06:42:55.624Z,27.40
2019-05-23T06:45:24.223Z,28.50
2019-05-23T06:47:52.688Z,28.40
2019-05-23T06:50:21.137Z,28.60
2019-05-23T06:52:49.387Z,28.00
2019-05-23T06:55:18.757Z,27.00
2019-05-23T06:57:47.063Z,25.80
2019-05-23T07:00:18.572Z,27.80
2019-05-23T07:02:47.310Z,28.50
2019-05-23T07:05:17.175Z,29.10
2019-05-23T07:07:45.665Z,28.80
2019-05-23T07:10:14.061Z,28.80
2019-05-23T07:12:43.357Z,28.10
2019-05-23T07:15:11.661Z,28.50
2019-05-23T07:17:40.418Z,28.90
2019-05-23T07:20:09.947Z,28.70
2019-05-23T07:22:38.721Z,29.30
2019-05-23T07:25:07.545Z,29.40
2019-05-23T07:27:35.870Z,29.70
2019-05-23T07:30:06.647Z,29.40
2019-05-23T07:32:34.895Z,28.40
2019-05-23T07:35:03.120Z,28.30
2019-05-23T07:37:31.747Z,29.50
2019-05-23T07:40:00.014Z,30.50
2019-05-23T07:42:28.861Z,28.70
2019-05-23T07:44:58.906Z,29.60
2019-05-23T07:47:27.642Z,30.90
2019-05-23T07:49:55.977Z,30.40
2019-05-23T07:52:24.309Z,31.50
2019-05-23T07:54:58.155Z,31.90
2019-05-23T07:57:26.433Z,31.80
2019-05-23T07:59:55.740Z,32.90
2019-05-23T08:02:29.187Z,31.70
2019-05-23T08:04:57.775Z,30.40
2019-05-23T08:07:26.361Z,32.50
2019-05-23T08:09:54.748Z,32.30
2019-05-23T08:12:23.604Z,32.50
2019-05-23T08:14:51.843Z,33.20
2019-05-23T08:17:20.489Z,33.80
2019-05-23T08:19:50.416Z,32.30
2019-05-23T08:22:18.920Z,32.80
2019-05-23T08:24:50.960Z,32.70
2019-05-23T08:27:18.061Z,31.90
2019-05-23T08:29:46.751Z,31.20
2019-05-23T08:32:15.871Z,33.70
2019-05-23T08:34:44.376Z,34.50
2019-05-23T08:37:14.184Z,33.40
2019-05-23T08:39:43.207Z,34.80
2019-05-23T08:42:12.125Z,35.10
2019-05-23T08:44:41.058Z,33.80
2019-05-23T08:47:10.910Z,35.60
2019-05-23T08:49:39.966Z,34.50
2019-05-23T08:52:09.977Z,33.00
2019-05-23T08:54:38.278Z,33.30
2019-05-23T08:57:08.737Z,33.90
2019-05-23T08:59:37.284Z,34.50
2019-05-23T09:02:05.751Z,33.80
2019-05-23T09:04:36.540Z,33.20
2019-05-23T09:07:07.252Z,32.60
2019-05-23T09:09:36.092Z,32.10
2019-05-23T09:12:05.944Z,33.90
2019-05-23T09:14:35.447Z,31.70
2019-05-23T09:17:06.834Z,31.00
2019-05-23T09:19:35.088Z,32.40
2019-05-23T09:22:03.509Z,33.70
2019-05-23T09:24:33.292Z,32.30
2019-05-23T09:27:02.705Z,31.80
2019-05-23T09:29:31.260Z,31.50
2019-05-23T09:32:00.134Z,30.50
2019-05-23T09:34:29.048Z,28.80
2019-05-23T09:37:00.278Z,30.30
2019-05-23T09:39:29.288Z,29.50
2019-05-23T09:41:57.908Z,28.50
2019-05-23T09:44:26.155Z,29.90
2019-05-23T09:46:54.415Z,29.40
2019-05-23T09:49:22.749Z,28.40
2019-05-23T09:51:55.929Z,27.90
2019-05-23T09:54:22.443Z,28.00
2019-05-23T09:56:51.883Z,27.10
2019-05-23T09:59:20.137Z,26.90
2019-05-23T10:01:48.985Z,27.00
2019-05-23T10:04:17.649Z,28.00
2019-05-23T10:06:47.300Z,27.50
2019-05-23T10:09:17.112Z,26.40
2019-05-23T10:11:45.764Z,26.00
2019-05-23T10:14:19.942Z,26.10
2019-05-23T10:16:48.289Z,25.90
2019-05-23T10:19:16.927Z,26.10
2019-05-23T10:21:45.228Z,26.50
2019-05-23T10:25:43.474Z,26.00
2019-05-23T10:28:12.259Z,25.50
2019-05-23T10:30:42.255Z,25.10
2019-05-23T10:33:13.375Z,25.10
2019-05-23T10:35:58.853Z,25.00
2019-05-23T10:38:16.029Z,25.50
2019-05-23T10:40:46.362Z,25.20
2019-05-23T10:43:16.386Z,25.20
2019-05-23T10:45:46.564Z,24.50
2019-05-23T10:48:16.837Z,25.00
2019-05-23T10:50:46.838Z,24.90
2019-05-23T10:53:17.072Z,24.40
2019-05-23T10:55:47.395Z,24.60
2019-05-23T10:58:17.603Z,24.60
2019-05-23T11:00:48.005Z,24.60
2019-05-23T11:03:18.098Z,24.70
2019-05-23T11:05:48.059Z,24.90
2019-05-23T11:08:18.735Z,25.10
2019-05-23T11:10:49.235Z,24.60
2019-05-23T11:13:19.111Z,24.60
2019-05-23T11:15:49.850Z,24.90
2019-05-23T11:18:20.021Z,24.90
2019-05-23T11:20:49.916Z,24.50
2019-05-23T11:23:25.471Z,25.00
2019-05-23T11:25:55.171Z,24.60
2019-05-23T11:28:25.738Z,24.70
2019-05-23T11:30:57.849Z,24.80
2019-05-23T11:33:28.052Z,24.90
2019-05-23T11:35:58.330Z,24.90
2019-05-23T11:38:28.639Z,24.80
2019-05-23T11:40:58.625Z,25.10
2019-05-23T11:43:28.686Z,25.10
2019-05-23T11:46:02.167Z,25.40
2019-05-23T11:48:33.125Z,25.80
2019-05-23T11:51:03.324Z,25.60
2019-05-23T11:53:34.009Z,25.20
2019-05-23T11:56:03.993Z,25.30
2019-05-23T11:58:33.794Z,25.20
2019-05-23T12:01:20.911Z,25.30
2019-05-23T12:03:51.949Z,25.50
2019-05-23T12:06:25.771Z,25.60
2019-05-23T12:08:54.182Z,25.50
2019-05-23T12:11:29.429Z,25.50
2019-05-23T12:13:59.261Z,25.10
2019-05-23T12:16:29.283Z,24.60
2019-05-23T12:18:59.366Z,24.90
2019-05-23T12:21:30.341Z,24.90
2019-05-23T12:24:00.291Z,24.60
2019-05-23T12:26:30.896Z,25.10
2019-05-23T12:29:01.070Z,25.30
2019-05-23T12:31:31.441Z,25.10
2019-05-23T12:34:01.229Z,25.60
2019-05-23T12:36:31.672Z,24.90
2019-05-23T12:39:02.064Z,24.90
2019-05-23T12:41:31.948Z,25.00
2019-05-23T12:44:02.154Z,25.00
2019-05-23T12:46:31.794Z,25.30
2019-05-23T12:49:21.105Z,25.40
2019-05-23T12:51:51.684Z,24.90
2019-05-23T12:54:21.605Z,24.70
2019-05-23T12:56:51.943Z,24.90
2019-05-23T12:59:22.121Z,24.80
2019-05-23T13:01:53.621Z,24.90
2019-05-23T13:04:24.080Z,25.00
2019-05-23T13:06:54.756Z,25.00
2019-05-23T13:09:24.580Z,25.00
2019-05-23T13:11:54.650Z,25.10
2019-05-23T13:14:24.854Z,25.10
2019-05-23T13:16:59.783Z,25.10
2019-05-23T13:19:27.661Z,24.90
2019-05-23T13:21:56.744Z,24.60
2019-05-23T13:24:26.036Z,24.50
2019-05-23T13:26:55.523Z,24.20
2019-05-23T13:29:25.035Z,24.00
2019-05-23T13:31:54.904Z,24.20
2019-05-23T13:34:23.627Z,24.20
2019-05-23T13:36:52.557Z,24.20
2019-05-23T13:39:22.217Z,24.20
2019-05-23T13:41:51.237Z,24.30
2019-05-23T13:44:32.714Z,24.70
2019-05-23T13:46:51.670Z,24.50
2019-05-23T13:49:20.454Z,24.40
2019-05-23T13:51:49.447Z,24.40
2019-05-23T13:54:18.455Z,24.40
2019-05-23T13:56:48.077Z,24.20
2019-05-23T13:59:16.799Z,24.10
2019-05-23T14:01:45.749Z,24.20
2019-05-23T14:04:14.958Z,24.40
2019-05-23T14:06:43.649Z,24.40
2019-05-23T14:09:12.796Z,24.20
2019-05-23T14:11:41.581Z,24.20
2019-05-23T14:14:10.897Z,24.10
2019-05-23T14:17:01.573Z,24.00
2019-05-23T14:19:30.572Z,24.00
2019-05-23T14:21:59.448Z,24.20
2019-05-23T14:24:28.138Z,24.00
2019-05-23T14:27:03.809Z,24.10
2019-05-23T14:29:32.574Z,24.30
2019-05-23T14:32:13.752Z,24.00
2019-05-23T14:34:42.940Z,24.00
2019-05-23T14:37:16.226Z,23.90
2019-05-23T14:40:07.266Z,24.10
2019-05-23T14:42:45.468Z,24.30
2019-05-23T14:45:48.448Z,23.90
2019-05-23T14:48:23.587Z,24.10
2019-05-23T14:51:23.720Z,24.20
2019-05-23T14:53:56.479Z,24.10
2019-05-23T14:56:26.032Z,24.10
2019-05-23T14:58:54.906Z,24.10
2019-05-23T15:01:24.895Z,24.10
2019-05-23T15:03:54.459Z,23.70
2019-05-23T15:06:23.598Z,23.70
2019-05-23T15:08:52.446Z,23.70
2019-05-23T15:11:21.922Z,23.50
2019-05-23T15:13:51.005Z,23.50
2019-05-23T15:16:20.184Z,23.50
2019-05-23T15:18:49.769Z,23.40
2019-05-23T15:21:18.771Z,23.40
2019-05-23T15:23:47.381Z,23.50
2019-05-23T15:26:22.812Z,23.50
2019-05-23T15:28:46.844Z,23.50
2019-05-23T15:31:16.011Z,23.50
2019-05-23T15:33:45.589Z,23.60
2019-05-23T15:36:14.689Z,23.70
2019-05-23T15:38:43.807Z,23.80
2019-05-23T15:41:12.557Z,23.80
2019-05-23T15:43:41.247Z,23.50
2019-05-23T15:46:10.019Z,23.70
2019-05-23T15:48:39.252Z,23.70
2019-05-23T15:51:08.747Z,23.50
2019-05-23T15:54:10.914Z,23.50
2019-05-23T15:57:04.784Z,23.50
2019-05-23T15:59:46.984Z,23.40
2019-05-23T16:02:21.386Z,23.40
2019-05-23T16:04:51.197Z,23.20
2019-05-23T16:07:21.027Z,23.30
2019-05-23T16:09:50.110Z,23.30
2019-05-23T16:12:19.858Z,23.20
2019-05-23T16:14:48.798Z,23.20
2019-05-23T16:20:05.927Z,23.20
2019-05-23T16:22:35.045Z,22.80
2019-05-23T16:25:05.790Z,22.80
2019-05-23T16:27:34.743Z,22.80
2019-05-23T16:30:03.763Z,22.70
2019-05-23T16:32:32.814Z,22.80
2019-05-23T16:35:01.777Z,22.70
2019-05-23T16:37:32.028Z,22.80
2019-05-23T16:40:01.929Z,22.80
2019-05-23T16:42:32.269Z,22.90
2019-05-23T16:45:02.174Z,23.00
2019-05-23T16:47:32.325Z,23.10
2019-05-23T16:50:02.088Z,23.10
2019-05-23T16:52:32.301Z,23.10
2019-05-23T16:55:03.685Z,23.10
2019-05-23T16:57:50.742Z,22.90
2019-05-23T17:00:39.915Z,22.80
2019-05-23T17:03:41.078Z,22.80
2019-05-23T17:06:24.231Z,22.80
2019-05-23T17:09:11.644Z,22.80
2019-05-23T17:11:50.387Z,22.80
2019-05-23T17:14:30.432Z,23.00
2019-05-23T17:17:56.672Z,23.10
2019-05-23T17:20:20.742Z,23.00
2019-05-23T17:23:03.655Z,22.80
2019-05-23T17:25:56.550Z,22.90
2019-05-23T17:28:34.302Z,22.80
2019-05-23T17:31:09.422Z,22.60
2019-05-23T17:33:39.186Z,22.50
2019-05-23T17:36:08.949Z,22.40
2019-05-23T17:38:38.880Z,22.30
2019-05-23T17:41:09.347Z,22.10
2019-05-23T17:43:39.327Z,21.90
2019-05-23T17:46:09.195Z,21.90
2019-05-23T17:48:39.031Z,21.80
2019-05-23T17:51:08.844Z,21.70
2019-05-23T17:53:38.721Z,21.40
2019-05-23T17:56:09.173Z,21.30
2019-05-23T17:58:39.140Z,21.30
2019-05-23T18:01:09.443Z,21.30
2019-05-23T18:03:39.272Z,21.10
2019-05-23T18:06:09.895Z,21.00
2019-05-23T18:08:41.223Z,21.00
2019-05-23T18:11:11.411Z,20.80
2019-05-23T18:13:41.351Z,20.80
2019-05-23T18:16:12.162Z,20.70
2019-05-23T18:18:42.192Z,20.60
2019-05-23T18:21:12.400Z,20.50
2019-05-23T18:23:42.554Z,20.40
2019-05-23T18:26:12.841Z,20.30
2019-05-23T18:28:43.173Z,20.30
2019-05-23T18:31:17.356Z,20.10
2019-05-23T18:33:47.846Z,20.00
2019-05-23T18:36:17.629Z,19.90
2019-05-23T18:38:48.034Z,19.80
2019-05-23T18:41:17.768Z,19.70
2019-05-23T18:43:48.379Z,19.60
2019-05-23T18:46:40.423Z,19.40
2019-05-23T18:49:10.757Z,19.30
2019-05-23T18:51:41.134Z,19.10
2019-05-23T18:54:11.182Z,19.00
2019-05-23T18:56:41.444Z,18.80
2019-05-23T18:59:12.312Z,18.70
2019-05-23T19:01:42.544Z,18.50
2019-05-23T19:04:12.822Z,18.40
2019-05-23T19:06:43.291Z,18.20
2019-05-23T19:09:15.217Z,18.10
2019-05-23T19:11:45.640Z,18.00
2019-05-23T19:14:15.588Z,17.90
2019-05-23T19:16:47.702Z,17.80
2019-05-23T19:19:18.019Z,17.70
2019-05-23T19:21:48.502Z,17.60
2019-05-23T19:24:19.680Z,17.40
2019-05-23T19:26:49.203Z,17.40
2019-05-23T19:32:29.677Z,17.40
2019-05-23T19:34:59.561Z,17.30
2019-05-23T19:37:29.635Z,17.10
2019-05-23T19:39:59.737Z,17.00
2019-05-23T19:42:30.362Z,16.90
2019-05-23T19:44:59.988Z,16.70
2019-05-23T19:50:22.058Z,16.60
2019-05-23T19:52:52.879Z,16.40
2019-05-23T19:55:23.944Z,16.30
2019-05-23T19:57:55.869Z,16.30
2019-05-23T20:05:54.299Z,16.10
2019-05-23T20:08:23.314Z,15.90
2019-05-23T20:10:52.527Z,15.90
2019-05-23T20:13:21.429Z,15.90
2019-05-23T20:15:51.644Z,15.80
2019-05-23T20:18:21.722Z,15.70
2019-05-23T20:20:53.358Z,15.70
2019-05-23T20:23:23.508Z,15.70
2019-05-23T20:25:53.442Z,15.70
2019-05-23T20:28:23.629Z,15.60
2019-05-23T20:30:57.549Z,15.50
2019-05-23T20:33:27.751Z,15.40
2019-05-23T20:35:58.114Z,15.30
2019-05-23T20:38:28.608Z,15.30
2019-05-23T20:40:57.167Z,15.20
2019-05-23T20:43:27.149Z,15.10
2019-05-23T20:45:57.830Z,15.10
2019-05-23T20:48:28.498Z,15.10
2019-05-23T20:50:58.399Z,15.10
2019-05-23T20:53:28.486Z,15.10
2019-05-23T20:55:57.357Z,15.10
2019-05-23T20:58:27.621Z,15.00
2019-05-23T21:01:11.410Z,15.00
2019-05-23T21:03:41.586Z,14.90
2019-05-23T21:06:10.462Z,14.90
2019-05-23T21:08:39.112Z,14.90
2019-05-23T21:11:07.861Z,14.80
2019-05-23T21:13:37.764Z,14.80
2019-05-23T21:16:06.885Z,14.70
2019-05-23T21:18:36.935Z,14.60
2019-05-23T21:21:06.287Z,14.60
2019-05-23T21:23:37.415Z,14.50
2019-05-23T21:26:07.995Z,14.40
2019-05-23T21:28:38.085Z,14.30
2019-05-23T21:31:22.124Z,14.30
2019-05-23T21:33:50.816Z,14.10
2019-05-23T21:36:19.944Z,14.20
2019-05-23T21:38:49.067Z,14.10
2019-05-23T21:41:18.306Z,14.00
2019-05-23T21:43:49.408Z,14.00
2019-05-23T21:46:19.274Z,13.90
2019-05-23T21:48:48.479Z,13.80
2019-05-23T21:53:55.080Z,13.70
2019-05-23T21:56:23.845Z,13.70
2019-05-23T21:58:53.043Z,13.70
2019-05-23T22:01:39.411Z,13.60
2019-05-23T22:04:26.232Z,13.50
2019-05-23T22:06:57.091Z,13.50
2019-05-23T22:09:26.166Z,13.30
2019-05-23T22:11:55.473Z,13.30
2019-05-23T22:14:24.195Z,13.30
2019-05-23T22:16:53.326Z,13.30
2019-05-23T22:19:23.210Z,13.30
2019-05-23T22:21:52.036Z,13.30
2019-05-23T22:24:21.052Z,13.30
2019-05-23T22:26:50.302Z,13.30
2019-05-23T22:29:19.428Z,13.30
2019-05-23T22:31:48.230Z,13.20
2019-05-23T22:34:34.734Z,13.20
2019-05-23T22:37:04.923Z,13.20
2019-05-23T22:39:33.980Z,13.20
2019-05-23T22:42:02.799Z,13.10
2019-05-23T22:44:32.559Z,13.10
2019-05-23T22:47:01.488Z,13.10
2019-05-23T22:49:30.297Z,13.10
2019-05-23T22:51:59.174Z,13.00
2019-05-23T22:54:28.333Z,13.20
2019-05-23T22:56:57.154Z,13.30
2019-05-23T22:59:25.765Z,13.30
2019-05-23T23:01:54.528Z,13.30
2019-05-23T23:04:23.557Z,13.40
2019-05-23T23:06:52.856Z,13.40
2019-05-23T23:09:22.166Z,13.40
2019-05-23T23:11:51.127Z,13.40
2019-05-23T23:14:19.923Z,13.50
2019-05-23T23:16:49.529Z,13.50
2019-05-23T23:19:18.374Z,13.40
2019-05-23T23:21:47.301Z,13.40
2019-05-23T23:24:16.140Z,13.40
2019-05-23T23:26:44.893Z,13.30
2019-05-23T23:29:13.763Z,13.30
2019-05-23T23:31:42.656Z,13.20
2019-05-23T23:34:11.562Z,13.20
2019-05-23T23:36:40.760Z,13.10
2019-05-23T23:39:09.630Z,13.10
2019-05-23T23:44:13.251Z,13.10
2019-05-23T23:46:59.655Z,13.00
2019-05-23T23:49:46.469Z,12.90
2019-05-23T23:52:32.731Z,12.80
2019-05-23T23:55:19.894Z,12.70
2019-05-23T23:57:59.905Z,12.70
